sensor_id;sensor_type;location;lat;lon;timestamp;P1;durP1;ratioP1;P2;durP2;ratioP2
37237;SDS011;23129;49.662;8.448;2022-09-28T00:01:53;3.67;;;3.05;;
37237;SDS011;23129;49.662;8.448;2022-09-28T00:04:21;4.28;;;2.45;;
37237;SDS011;23129;49.662;8.448;2022-09-28T00:06:51;2.70;;;2.50;;
37237;SDS011;23129;49.662;8.448;2022-09-28T00:09:19;6.07;;;2.55;;
37237;SDS011;23129;49.662;8.448;2022-09-28T00:11:48;4.32;;;2.60;;
37237;SDS011;23129;49.662;8.448;2022-09-28T00:14:16;7.22;;;2.30;;
37237;SDS011;23129;49.662;8.448;2022-09-28T00:16:44;4.35;;;2.70;;
37237;SDS011;23129;49.662;8.448;2022-09-28T00:19:13;6.60;;;3.28;;
37237;SDS011;23129;49.662;8.448;2022-09-28T00:21:42;6.93;;;2.15;;
37237;SDS011;23129;49.662;8.448;2022-09-28T00:24:13;4.70;;;2.60;;
37237;SDS011;23129;49.662;8.448;2022-09-28T00:26:43;3.58;;;2.00;;
37237;SDS011;23129;49.662;8.448;2022-09-28T00:29:16;9.82;;;2.10;;
37237;SDS011;23129;49.662;8.448;2022-09-28T00:31:49;7.20;;;2.10;;
37237;SDS011;23129;49.662;8.448;2022-09-28T00:34:22;6.63;;;2.08;;
37237;SDS011;23129;49.662;8.448;2022-09-28T00:36:50;6.20;;;2.60;;
37237;SDS011;23129;49.662;8.448;2022-09-28T00:39:20;7.03;;;2.25;;
37237;SDS011;23129;49.662;8.448;2022-09-28T00:41:49;8.30;;;2.10;;
37237;SDS011;23129;49.662;8.448;2022-09-28T00:50:18;4.00;;;2.67;;
37237;SDS011;23129;49.662;8.448;2022-09-28T00:52:53;10.02;;;3.72;;
37237;SDS011;23129;49.662;8.448;2022-09-28T00:55:28;4.68;;;2.72;;
37237;SDS011;23129;49.662;8.448;2022-09-28T00:58:02;7.22;;;3.80;;
37237;SDS011;23129;49.662;8.448;2022-09-28T01:00:33;6.50;;;3.45;;
37237;SDS011;23129;49.662;8.448;2022-09-28T01:03:02;6.88;;;2.70;;
37237;SDS011;23129;49.662;8.448;2022-09-28T01:05:31;5.20;;;3.20;;
37237;SDS011;23129;49.662;8.448;2022-09-28T01:08:00;6.47;;;2.28;;
37237;SDS011;23129;49.662;8.448;2022-09-28T01:10:30;11.45;;;3.55;;
37237;SDS011;23129;49.662;8.448;2022-09-28T01:12:59;5.63;;;2.33;;
37237;SDS011;23129;49.662;8.448;2022-09-28T01:15:28;7.22;;;2.50;;
37237;SDS011;23129;49.662;8.448;2022-09-28T01:18:05;4.68;;;2.40;;
37237;SDS011;23129;49.662;8.448;2022-09-28T01:20:53;7.32;;;2.03;;
37237;SDS011;23129;49.662;8.448;2022-09-28T01:23:47;3.10;;;2.58;;
37237;SDS011;23129;49.662;8.448;2022-09-28T01:26:42;6.22;;;2.20;;
37237;SDS011;23129;49.662;8.448;2022-09-28T01:29:30;5.10;;;1.83;;
37237;SDS011;23129;49.662;8.448;2022-09-28T01:32:10;2.40;;;1.52;;
37237;SDS011;23129;49.662;8.448;2022-09-28T01:34:53;1.92;;;1.83;;
37237;SDS011;23129;49.662;8.448;2022-09-28T01:37:30;3.17;;;1.60;;
37237;SDS011;23129;49.662;8.448;2022-09-28T01:40:06;4.45;;;1.73;;
37237;SDS011;23129;49.662;8.448;2022-09-28T01:42:40;1.33;;;1.23;;
37237;SDS011;23129;49.662;8.448;2022-09-28T01:47:45;6.70;;;2.00;;
37237;SDS011;23129;49.662;8.448;2022-09-28T01:50:16;8.35;;;2.40;;
37237;SDS011;23129;49.662;8.448;2022-09-28T01:52:49;4.40;;;1.53;;
37237;SDS011;23129;49.662;8.448;2022-09-28T01:55:26;2.20;;;1.40;;
37237;SDS011;23129;49.662;8.448;2022-09-28T01:58:02;8.07;;;2.47;;
37237;SDS011;23129;49.662;8.448;2022-09-28T02:00:37;5.32;;;1.80;;
37237;SDS011;23129;49.662;8.448;2022-09-28T02:03:10;2.47;;;1.52;;
37237;SDS011;23129;49.662;8.448;2022-09-28T02:05:51;3.13;;;1.60;;
37237;SDS011;23129;49.662;8.448;2022-09-28T02:08:26;1.58;;;1.33;;
37237;SDS011;23129;49.662;8.448;2022-09-28T02:11:02;6.57;;;1.35;;
37237;SDS011;23129;49.662;8.448;2022-09-28T02:13:39;4.20;;;1.45;;
37237;SDS011;23129;49.662;8.448;2022-09-28T02:16:12;1.20;;;1.10;;
37237;SDS011;23129;49.662;8.448;2022-09-28T02:18:48;1.73;;;1.13;;
37237;SDS011;23129;49.662;8.448;2022-09-28T02:21:25;1.02;;;0.98;;
37237;SDS011;23129;49.662;8.448;2022-09-28T02:24:00;2.95;;;1.02;;
37237;SDS011;23129;49.662;8.448;2022-09-28T02:26:34;4.57;;;1.88;;
37237;SDS011;23129;49.662;8.448;2022-09-28T02:29:09;1.05;;;0.80;;
37237;SDS011;23129;49.662;8.448;2022-09-28T02:31:38;1.83;;;1.08;;
37237;SDS011;23129;49.662;8.448;2022-09-28T02:34:07;0.70;;;0.70;;
37237;SDS011;23129;49.662;8.448;2022-09-28T02:36:36;0.88;;;0.88;;
37237;SDS011;23129;49.662;8.448;2022-09-28T02:39:11;2.15;;;0.70;;
37237;SDS011;23129;49.662;8.448;2022-09-28T02:41:44;0.73;;;0.60;;
37237;SDS011;23129;49.662;8.448;2022-09-28T02:44:37;2.40;;;1.23;;
37237;SDS011;23129;49.662;8.448;2022-09-28T02:47:22;2.65;;;0.90;;
37237;SDS011;23129;49.662;8.448;2022-09-28T02:50:06;3.63;;;0.57;;
37237;SDS011;23129;49.662;8.448;2022-09-28T02:56:08;5.30;;;1.10;;
37237;SDS011;23129;49.662;8.448;2022-09-28T02:58:53;1.65;;;0.70;;
37237;SDS011;23129;49.662;8.448;2022-09-28T03:01:33;1.08;;;0.70;;
37237;SDS011;23129;49.662;8.448;2022-09-28T03:04:16;0.98;;;0.60;;
37237;SDS011;23129;49.662;8.448;2022-09-28T03:06:56;4.30;;;1.05;;
37237;SDS011;23129;49.662;8.448;2022-09-28T03:09:28;1.05;;;0.85;;
37237;SDS011;23129;49.662;8.448;2022-09-28T03:12:05;2.65;;;1.33;;
37237;SDS011;23129;49.662;8.448;2022-09-28T03:17:08;2.00;;;0.80;;
37237;SDS011;23129;49.662;8.448;2022-09-28T03:19:36;2.17;;;0.73;;
37237;SDS011;23129;49.662;8.448;2022-09-28T03:22:04;1.10;;;0.85;;
37237;SDS011;23129;49.662;8.448;2022-09-28T03:24:33;2.17;;;1.00;;
37237;SDS011;23129;49.662;8.448;2022-09-28T03:27:02;1.58;;;0.70;;
37237;SDS011;23129;49.662;8.448;2022-09-28T03:29:30;3.55;;;0.75;;
37237;SDS011;23129;49.662;8.448;2022-09-28T03:32:03;2.67;;;1.42;;
37237;SDS011;23129;49.662;8.448;2022-09-28T03:34:32;4.72;;;1.20;;
37237;SDS011;23129;49.662;8.448;2022-09-28T03:37:01;2.50;;;1.38;;
37237;SDS011;23129;49.662;8.448;2022-09-28T03:39:30;1.73;;;1.15;;
37237;SDS011;23129;49.662;8.448;2022-09-28T03:41:58;3.90;;;0.90;;
37237;SDS011;23129;49.662;8.448;2022-09-28T03:44:29;1.98;;;1.05;;
37237;SDS011;23129;49.662;8.448;2022-09-28T03:46:57;2.13;;;1.42;;
37237;SDS011;23129;49.662;8.448;2022-09-28T03:49:26;9.10;;;1.60;;
37237;SDS011;23129;49.662;8.448;2022-09-28T03:51:55;3.80;;;1.27;;
37237;SDS011;23129;49.662;8.448;2022-09-28T03:54:24;7.75;;;1.98;;
37237;SDS011;23129;49.662;8.448;2022-09-28T03:56:52;3.67;;;1.90;;
37237;SDS011;23129;49.662;8.448;2022-09-28T03:59:20;4.63;;;2.13;;
37237;SDS011;23129;49.662;8.448;2022-09-28T04:01:49;4.15;;;1.55;;
37237;SDS011;23129;49.662;8.448;2022-09-28T04:04:17;4.78;;;1.52;;
37237;SDS011;23129;49.662;8.448;2022-09-28T04:06:46;3.15;;;2.22;;
37237;SDS011;23129;49.662;8.448;2022-09-28T04:09:16;2.60;;;2.17;;
37237;SDS011;23129;49.662;8.448;2022-09-28T04:11:45;5.40;;;2.08;;
37237;SDS011;23129;49.662;8.448;2022-09-28T04:14:30;3.47;;;1.88;;
37237;SDS011;23129;49.662;8.448;2022-09-28T04:16:59;8.73;;;2.25;;
37237;SDS011;23129;49.662;8.448;2022-09-28T04:19:29;2.28;;;1.98;;
37237;SDS011;23129;49.662;8.448;2022-09-28T04:22:17;2.92;;;2.20;;
37237;SDS011;23129;49.662;8.448;2022-09-28T04:24:46;3.25;;;1.67;;
37237;SDS011;23129;49.662;8.448;2022-09-28T04:27:16;3.42;;;2.00;;
37237;SDS011;23129;49.662;8.448;2022-09-28T04:30:02;7.50;;;2.83;;
37237;SDS011;23129;49.662;8.448;2022-09-28T04:32:33;7.07;;;2.40;;
37237;SDS011;23129;49.662;8.448;2022-09-28T04:35:01;5.97;;;3.15;;
37237;SDS011;23129;49.662;8.448;2022-09-28T04:37:30;9.43;;;2.47;;
37237;SDS011;23129;49.662;8.448;2022-09-28T04:40:01;2.17;;;1.83;;
37237;SDS011;23129;49.662;8.448;2022-09-28T04:42:31;5.32;;;2.20;;
37237;SDS011;23129;49.662;8.448;2022-09-28T04:44:59;3.33;;;2.30;;
37237;SDS011;23129;49.662;8.448;2022-09-28T04:47:31;4.47;;;1.80;;
37237;SDS011;23129;49.662;8.448;2022-09-28T04:50:15;8.75;;;2.38;;
37237;SDS011;23129;49.662;8.448;2022-09-28T04:53:02;4.65;;;2.53;;
37237;SDS011;23129;49.662;8.448;2022-09-28T04:55:32;8.05;;;2.70;;
37237;SDS011;23129;49.662;8.448;2022-09-28T04:58:01;3.00;;;2.33;;
37237;SDS011;23129;49.662;8.448;2022-09-28T05:00:31;6.47;;;2.20;;
37237;SDS011;23129;49.662;8.448;2022-09-28T05:03:23;3.83;;;2.90;;
37237;SDS011;23129;49.662;8.448;2022-09-28T05:06:13;3.90;;;2.42;;
37237;SDS011;23129;49.662;8.448;2022-09-28T05:08:44;8.82;;;2.38;;
37237;SDS011;23129;49.662;8.448;2022-09-28T05:11:15;4.43;;;2.60;;
37237;SDS011;23129;49.662;8.448;2022-09-28T05:13:45;5.20;;;3.10;;
37237;SDS011;23129;49.662;8.448;2022-09-28T05:16:16;4.63;;;2.53;;
37237;SDS011;23129;49.662;8.448;2022-09-28T05:19:04;3.30;;;2.08;;
37237;SDS011;23129;49.662;8.448;2022-09-28T05:21:32;7.53;;;2.47;;
37237;SDS011;23129;49.662;8.448;2022-09-28T05:24:01;7.47;;;2.97;;
37237;SDS011;23129;49.662;8.448;2022-09-28T05:26:35;9.88;;;2.60;;
37237;SDS011;23129;49.662;8.448;2022-09-28T05:29:06;3.47;;;2.35;;
37237;SDS011;23129;49.662;8.448;2022-09-28T05:31:49;4.63;;;2.30;;
37237;SDS011;23129;49.662;8.448;2022-09-28T05:34:30;4.45;;;2.53;;
37237;SDS011;23129;49.662;8.448;2022-09-28T05:36:59;4.90;;;2.83;;
37237;SDS011;23129;49.662;8.448;2022-09-28T05:39:29;7.97;;;2.95;;
37237;SDS011;23129;49.662;8.448;2022-09-28T05:41:58;7.07;;;3.53;;
37237;SDS011;23129;49.662;8.448;2022-09-28T05:44:27;6.93;;;3.22;;
37237;SDS011;23129;49.662;8.448;2022-09-28T05:46:55;5.00;;;2.83;;
37237;SDS011;23129;49.662;8.448;2022-09-28T05:49:24;6.28;;;3.25;;
37237;SDS011;23129;49.662;8.448;2022-09-28T05:51:54;3.40;;;2.40;;
37237;SDS011;23129;49.662;8.448;2022-09-28T05:54:23;4.20;;;2.88;;
37237;SDS011;23129;49.662;8.448;2022-09-28T05:56:52;3.95;;;2.65;;
37237;SDS011;23129;49.662;8.448;2022-09-28T05:59:21;4.10;;;3.15;;
37237;SDS011;23129;49.662;8.448;2022-09-28T06:01:49;4.63;;;2.95;;
37237;SDS011;23129;49.662;8.448;2022-09-28T06:04:18;5.63;;;3.22;;
37237;SDS011;23129;49.662;8.448;2022-09-28T06:06:47;4.00;;;3.35;;
37237;SDS011;23129;49.662;8.448;2022-09-28T06:09:16;8.98;;;3.65;;
37237;SDS011;23129;49.662;8.448;2022-09-28T06:12:08;8.23;;;2.97;;
37237;SDS011;23129;49.662;8.448;2022-09-28T06:14:47;5.43;;;3.45;;
37237;SDS011;23129;49.662;8.448;2022-09-28T06:17:16;9.68;;;3.50;;
37237;SDS011;23129;49.662;8.448;2022-09-28T06:19:51;8.70;;;3.00;;
37237;SDS011;23129;49.662;8.448;2022-09-28T06:22:40;8.75;;;2.30;;
37237;SDS011;23129;49.662;8.448;2022-09-28T06:25:08;5.90;;;2.83;;
37237;SDS011;23129;49.662;8.448;2022-09-28T06:27:37;3.20;;;2.25;;
37237;SDS011;23129;49.662;8.448;2022-09-28T06:30:10;2.85;;;2.53;;
37237;SDS011;23129;49.662;8.448;2022-09-28T06:32:39;6.30;;;2.45;;
37237;SDS011;23129;49.662;8.448;2022-09-28T06:35:08;5.88;;;2.72;;
37237;SDS011;23129;49.662;8.448;2022-09-28T06:37:36;11.27;;;2.70;;
37237;SDS011;23129;49.662;8.448;2022-09-28T06:40:05;8.55;;;2.67;;
37237;SDS011;23129;49.662;8.448;2022-09-28T06:42:34;5.35;;;2.83;;
37237;SDS011;23129;49.662;8.448;2022-09-28T06:45:27;7.97;;;1.90;;
37237;SDS011;23129;49.662;8.448;2022-09-28T06:48:19;3.58;;;2.00;;
37237;SDS011;23129;49.662;8.448;2022-09-28T06:50:48;6.57;;;1.95;;
37237;SDS011;23129;49.662;8.448;2022-09-28T06:53:29;3.42;;;1.13;;
37237;SDS011;23129;49.662;8.448;2022-09-28T06:56:08;2.75;;;1.13;;
37237;SDS011;23129;49.662;8.448;2022-09-28T06:58:37;1.52;;;1.00;;
37237;SDS011;23129;49.662;8.448;2022-09-28T07:01:07;1.65;;;0.75;;
37237;SDS011;23129;49.662;8.448;2022-09-28T07:03:48;2.22;;;0.73;;
37237;SDS011;23129;49.662;8.448;2022-09-28T07:06:44;2.00;;;0.82;;
37237;SDS011;23129;49.662;8.448;2022-09-28T07:09:32;1.60;;;0.88;;
37237;SDS011;23129;49.662;8.448;2022-09-28T07:12:18;7.43;;;1.02;;
37237;SDS011;23129;49.662;8.448;2022-09-28T07:14:57;2.15;;;0.80;;
37237;SDS011;23129;49.662;8.448;2022-09-28T07:17:28;2.47;;;0.50;;
37237;SDS011;23129;49.662;8.448;2022-09-28T07:19:59;1.77;;;0.68;;
37237;SDS011;23129;49.662;8.448;2022-09-28T07:22:43;1.85;;;0.93;;
37237;SDS011;23129;49.662;8.448;2022-09-28T07:25:18;1.00;;;0.68;;
37237;SDS011;23129;49.662;8.448;2022-09-28T07:28:06;9.65;;;0.63;;
37237;SDS011;23129;49.662;8.448;2022-09-28T07:30:55;0.77;;;0.52;;
37237;SDS011;23129;49.662;8.448;2022-09-28T07:33:45;5.38;;;0.95;;
37237;SDS011;23129;49.662;8.448;2022-09-28T07:36:29;3.20;;;0.80;;
37237;SDS011;23129;49.662;8.448;2022-09-28T07:39:01;0.43;;;0.43;;
37237;SDS011;23129;49.662;8.448;2022-09-28T07:41:29;6.22;;;1.33;;
37237;SDS011;23129;49.662;8.448;2022-09-28T07:44:02;1.02;;;0.45;;
37237;SDS011;23129;49.662;8.448;2022-09-28T07:46:33;1.55;;;0.40;;
37237;SDS011;23129;49.662;8.448;2022-09-28T07:49:12;2.65;;;0.95;;
37237;SDS011;23129;49.662;8.448;2022-09-28T07:52:12;1.55;;;0.45;;
37237;SDS011;23129;49.662;8.448;2022-09-28T07:54:59;1.80;;;0.68;;
37237;SDS011;23129;49.662;8.448;2022-09-28T07:58:02;5.22;;;1.05;;
37237;SDS011;23129;49.662;8.448;2022-09-28T08:00:57;5.13;;;0.75;;
37237;SDS011;23129;49.662;8.448;2022-09-28T08:03:26;2.35;;;0.95;;
37237;SDS011;23129;49.662;8.448;2022-09-28T08:05:59;0.93;;;0.65;;
37237;SDS011;23129;49.662;8.448;2022-09-28T08:08:32;1.90;;;0.82;;
37237;SDS011;23129;49.662;8.448;2022-09-28T08:11:01;1.23;;;0.63;;
37237;SDS011;23129;49.662;8.448;2022-09-28T08:13:48;1.38;;;0.85;;
37237;SDS011;23129;49.662;8.448;2022-09-28T08:16:39;4.60;;;0.85;;
37237;SDS011;23129;49.662;8.448;2022-09-28T08:19:34;1.27;;;0.85;;
37237;SDS011;23129;49.662;8.448;2022-09-28T08:22:22;0.70;;;0.55;;
37237;SDS011;23129;49.662;8.448;2022-09-28T08:24:53;2.97;;;0.98;;
37237;SDS011;23129;49.662;8.448;2022-09-28T08:27:22;7.53;;;0.90;;
37237;SDS011;23129;49.662;8.448;2022-09-28T08:29:50;2.70;;;0.50;;
37237;SDS011;23129;49.662;8.448;2022-09-28T08:32:37;3.63;;;0.75;;
37237;SDS011;23129;49.662;8.448;2022-09-28T08:35:28;0.57;;;0.57;;
37237;SDS011;23129;49.662;8.448;2022-09-28T08:38:33;2.25;;;0.80;;
37237;SDS011;23129;49.662;8.448;2022-09-28T08:41:15;0.60;;;0.60;;
37237;SDS011;23129;49.662;8.448;2022-09-28T08:44:10;2.35;;;0.68;;
37237;SDS011;23129;49.662;8.448;2022-09-28T08:47:13;2.55;;;1.20;;
37237;SDS011;23129;49.662;8.448;2022-09-28T08:50:25;3.42;;;0.57;;
37237;SDS011;23129;49.662;8.448;2022-09-28T08:53:21;1.43;;;0.80;;
37237;SDS011;23129;49.662;8.448;2022-09-28T08:56:13;3.10;;;0.98;;
37237;SDS011;23129;49.662;8.448;2022-09-28T08:58:57;3.33;;;0.73;;
37237;SDS011;23129;49.662;8.448;2022-09-28T09:01:31;3.70;;;0.98;;
37237;SDS011;23129;49.662;8.448;2022-09-28T09:04:09;4.82;;;0.93;;
37237;SDS011;23129;49.662;8.448;2022-09-28T09:07:06;0.50;;;0.45;;
37237;SDS011;23129;49.662;8.448;2022-09-28T09:10:09;2.67;;;0.80;;
37237;SDS011;23129;49.662;8.448;2022-09-28T09:12:54;0.60;;;0.60;;
37237;SDS011;23129;49.662;8.448;2022-09-28T09:15:33;3.00;;;0.85;;
37237;SDS011;23129;49.662;8.448;2022-09-28T09:18:33;0.90;;;0.65;;
37237;SDS011;23129;49.662;8.448;2022-09-28T09:21:28;4.80;;;1.05;;
37237;SDS011;23129;49.662;8.448;2022-09-28T09:24:15;2.35;;;0.75;;
37237;SDS011;23129;49.662;8.448;2022-09-28T09:26:58;4.75;;;0.77;;
37237;SDS011;23129;49.662;8.448;2022-09-28T09:29:41;1.88;;;0.47;;
37237;SDS011;23129;49.662;8.448;2022-09-28T09:32:37;2.92;;;0.65;;
37237;SDS011;23129;49.662;8.448;2022-09-28T09:35:34;1.45;;;0.47;;
37237;SDS011;23129;49.662;8.448;2022-09-28T09:38:44;1.27;;;0.40;;
37237;SDS011;23129;49.662;8.448;2022-09-28T09:41:32;1.48;;;0.40;;
37237;SDS011;23129;49.662;8.448;2022-09-28T09:44:40;0.73;;;0.40;;
37237;SDS011;23129;49.662;8.448;2022-09-28T09:47:57;6.95;;;0.50;;
37237;SDS011;23129;49.662;8.448;2022-09-28T09:50:30;1.27;;;0.30;;
37237;SDS011;23129;49.662;8.448;2022-09-28T09:53:10;4.05;;;0.40;;
37237;SDS011;23129;49.662;8.448;2022-09-28T09:55:48;3.45;;;0.30;;
37237;SDS011;23129;49.662;8.448;2022-09-28T09:58:34;2.65;;;0.50;;
37237;SDS011;23129;49.662;8.448;2022-09-28T10:01:16;3.25;;;0.50;;
37237;SDS011;23129;49.662;8.448;2022-09-28T10:04:10;0.98;;;0.43;;
37237;SDS011;23129;49.662;8.448;2022-09-28T10:06:46;1.67;;;0.30;;
37237;SDS011;23129;49.662;8.448;2022-09-28T10:09:19;3.95;;;0.32;;
37237;SDS011;23129;49.662;8.448;2022-09-28T10:11:57;1.08;;;0.30;;
37237;SDS011;23129;49.662;8.448;2022-09-28T10:14:25;0.47;;;0.40;;
37237;SDS011;23129;49.662;8.448;2022-09-28T10:19:48;1.90;;;0.38;;
37237;SDS011;23129;49.662;8.448;2022-09-28T10:22:39;4.88;;;0.40;;
37237;SDS011;23129;49.662;8.448;2022-09-28T10:25:13;0.90;;;0.55;;
37237;SDS011;23129;49.662;8.448;2022-09-28T10:27:44;0.50;;;0.50;;
37237;SDS011;23129;49.662;8.448;2022-09-28T10:30:17;2.72;;;0.88;;
37237;SDS011;23129;49.662;8.448;2022-09-28T10:32:50;0.35;;;0.30;;
37237;SDS011;23129;49.662;8.448;2022-09-28T10:35:29;3.30;;;0.70;;
37237;SDS011;23129;49.662;8.448;2022-09-28T10:38:13;2.28;;;0.45;;
37237;SDS011;23129;49.662;8.448;2022-09-28T10:40:49;0.57;;;0.40;;
37237;SDS011;23129;49.662;8.448;2022-09-28T10:43:47;2.40;;;0.38;;
37237;SDS011;23129;49.662;8.448;2022-09-28T10:46:44;2.47;;;0.63;;
37237;SDS011;23129;49.662;8.448;2022-09-28T10:49:24;3.45;;;0.35;;
37237;SDS011;23129;49.662;8.448;2022-09-28T10:51:56;1.17;;;0.40;;
37237;SDS011;23129;49.662;8.448;2022-09-28T10:54:37;4.10;;;0.60;;
37237;SDS011;23129;49.662;8.448;2022-09-28T10:57:24;2.00;;;0.50;;
37237;SDS011;23129;49.662;8.448;2022-09-28T11:00:02;1.23;;;0.50;;
37237;SDS011;23129;49.662;8.448;2022-09-28T11:03:16;1.35;;;0.50;;
37237;SDS011;23129;49.662;8.448;2022-09-28T11:05:56;0.22;;;0.17;;
37237;SDS011;23129;49.662;8.448;2022-09-28T11:08:28;0.98;;;0.60;;
37237;SDS011;23129;49.662;8.448;2022-09-28T11:11:01;1.05;;;0.30;;
37237;SDS011;23129;49.662;8.448;2022-09-28T11:13:37;4.70;;;0.80;;
37237;SDS011;23129;49.662;8.448;2022-09-28T11:16:22;0.60;;;0.40;;
37237;SDS011;23129;49.662;8.448;2022-09-28T11:18:55;2.80;;;1.58;;
37237;SDS011;23129;49.662;8.448;2022-09-28T11:21:26;5.22;;;1.30;;
37237;SDS011;23129;49.662;8.448;2022-09-28T11:24:05;2.67;;;0.85;;
37237;SDS011;23129;49.662;8.448;2022-09-28T11:26:47;3.78;;;1.00;;
37237;SDS011;23129;49.662;8.448;2022-09-28T11:29:24;12.30;;;2.78;;
37237;SDS011;23129;49.662;8.448;2022-09-28T11:32:30;7.70;;;2.55;;
37237;SDS011;23129;49.662;8.448;2022-09-28T11:35:41;2.38;;;1.10;;
37237;SDS011;23129;49.662;8.448;2022-09-28T11:38:17;4.22;;;1.92;;
37237;SDS011;23129;49.662;8.448;2022-09-28T11:41:35;0.43;;;0.20;;
37237;SDS011;23129;49.662;8.448;2022-09-28T11:47:19;2.67;;;1.15;;
37237;SDS011;23129;49.662;8.448;2022-09-28T11:50:15;45.30;;;8.77;;
37237;SDS011;23129;49.662;8.448;2022-09-28T11:52:56;13.75;;;4.72;;
37237;SDS011;23129;49.662;8.448;2022-09-28T11:55:39;5.85;;;2.65;;
37237;SDS011;23129;49.662;8.448;2022-09-28T11:58:13;3.50;;;0.50;;
37237;SDS011;23129;49.662;8.448;2022-09-28T12:00:53;2.60;;;0.73;;
37237;SDS011;23129;49.662;8.448;2022-09-28T12:03:43;2.60;;;0.95;;
37237;SDS011;23129;49.662;8.448;2022-09-28T12:06:18;3.15;;;0.60;;
37237;SDS011;23129;49.662;8.448;2022-09-28T12:08:52;1.08;;;0.52;;
37237;SDS011;23129;49.662;8.448;2022-09-28T12:11:29;1.40;;;0.47;;
37237;SDS011;23129;49.662;8.448;2022-09-28T12:14:19;1.45;;;0.52;;
37237;SDS011;23129;49.662;8.448;2022-09-28T12:16:54;1.40;;;0.40;;
37237;SDS011;23129;49.662;8.448;2022-09-28T12:19:35;1.83;;;0.47;;
37237;SDS011;23129;49.662;8.448;2022-09-28T12:22:14;0.75;;;0.52;;
37237;SDS011;23129;49.662;8.448;2022-09-28T12:24:49;1.23;;;0.47;;
37237;SDS011;23129;49.662;8.448;2022-09-28T12:27:23;2.33;;;0.47;;
37237;SDS011;23129;49.662;8.448;2022-09-28T12:30:01;1.20;;;0.40;;
37237;SDS011;23129;49.662;8.448;2022-09-28T12:32:35;0.65;;;0.40;;
37237;SDS011;23129;49.662;8.448;2022-09-28T12:35:09;1.67;;;0.57;;
37237;SDS011;23129;49.662;8.448;2022-09-28T12:40:48;0.43;;;0.30;;
37237;SDS011;23129;49.662;8.448;2022-09-28T12:43:29;1.08;;;0.30;;
37237;SDS011;23129;49.662;8.448;2022-09-28T12:49:46;3.72;;;0.40;;
37237;SDS011;23129;49.662;8.448;2022-09-28T12:52:55;0.57;;;0.35;;
37237;SDS011;23129;49.662;8.448;2022-09-28T12:55:46;1.13;;;0.55;;
37237;SDS011;23129;49.662;8.448;2022-09-28T12:58:27;0.32;;;0.32;;
37237;SDS011;23129;49.662;8.448;2022-09-28T13:01:31;5.45;;;0.50;;
37237;SDS011;23129;49.662;8.448;2022-09-28T13:04:30;1.20;;;0.47;;
37237;SDS011;23129;49.662;8.448;2022-09-28T13:07:28;1.98;;;0.70;;
37237;SDS011;23129;49.662;8.448;2022-09-28T13:10:12;2.65;;;0.50;;
37237;SDS011;23129;49.662;8.448;2022-09-28T13:12:57;0.98;;;0.80;;
37237;SDS011;23129;49.662;8.448;2022-09-28T13:15:46;0.80;;;0.70;;
37237;SDS011;23129;49.662;8.448;2022-09-28T13:18:24;2.55;;;0.50;;
37237;SDS011;23129;49.662;8.448;2022-09-28T13:21:02;3.78;;;2.15;;
37237;SDS011;23129;49.662;8.448;2022-09-28T13:23:41;3.00;;;1.67;;
37237;SDS011;23129;49.662;8.448;2022-09-28T13:26:18;2.97;;;1.02;;
37237;SDS011;23129;49.662;8.448;2022-09-28T13:28:54;0.88;;;0.70;;
37237;SDS011;23129;49.662;8.448;2022-09-28T13:31:30;2.50;;;0.52;;
37237;SDS011;23129;49.662;8.448;2022-09-28T13:34:05;1.60;;;0.45;;
37237;SDS011;23129;49.662;8.448;2022-09-28T13:36:43;1.63;;;0.50;;
37237;SDS011;23129;49.662;8.448;2022-09-28T13:42:04;3.35;;;0.63;;
37237;SDS011;23129;49.662;8.448;2022-09-28T13:44:48;1.85;;;0.68;;
37237;SDS011;23129;49.662;8.448;2022-09-28T13:47:56;1.20;;;0.40;;
37237;SDS011;23129;49.662;8.448;2022-09-28T13:50:42;2.58;;;0.47;;
37237;SDS011;23129;49.662;8.448;2022-09-28T13:53:46;3.17;;;0.40;;
37237;SDS011;23129;49.662;8.448;2022-09-28T13:56:41;1.63;;;0.65;;
37237;SDS011;23129;49.662;8.448;2022-09-28T14:00:06;0.40;;;0.30;;
37237;SDS011;23129;49.662;8.448;2022-09-28T14:02:45;1.80;;;1.23;;
37237;SDS011;23129;49.662;8.448;2022-09-28T14:11:53;1.20;;;0.30;;
37237;SDS011;23129;49.662;8.448;2022-09-28T14:14:28;0.75;;;0.30;;
37237;SDS011;23129;49.662;8.448;2022-09-28T14:20:47;2.38;;;0.77;;
37237;SDS011;23129;49.662;8.448;2022-09-28T14:23:52;0.20;;;0.20;;
37237;SDS011;23129;49.662;8.448;2022-09-28T14:29:39;0.75;;;0.32;;
37237;SDS011;23129;49.662;8.448;2022-09-28T14:32:20;1.33;;;0.20;;
37237;SDS011;23129;49.662;8.448;2022-09-28T14:34:54;1.30;;;0.45;;
37237;SDS011;23129;49.662;8.448;2022-09-28T14:37:27;1.20;;;0.55;;
37237;SDS011;23129;49.662;8.448;2022-09-28T14:40:16;0.90;;;0.25;;
37237;SDS011;23129;49.662;8.448;2022-09-28T14:43:18;2.30;;;0.52;;
37237;SDS011;23129;49.662;8.448;2022-09-28T14:45:59;0.95;;;0.40;;
37237;SDS011;23129;49.662;8.448;2022-09-28T14:48:59;0.70;;;0.32;;
37237;SDS011;23129;49.662;8.448;2022-09-28T14:51:42;0.93;;;0.25;;
37237;SDS011;23129;49.662;8.448;2022-09-28T14:54:33;0.50;;;0.20;;
37237;SDS011;23129;49.662;8.448;2022-09-28T14:57:14;0.98;;;0.85;;
37237;SDS011;23129;49.662;8.448;2022-09-28T14:59:46;0.40;;;0.30;;
37237;SDS011;23129;49.662;8.448;2022-09-28T15:02:19;3.67;;;0.80;;
37237;SDS011;23129;49.662;8.448;2022-09-28T15:04:52;0.43;;;0.40;;
37237;SDS011;23129;49.662;8.448;2022-09-28T15:07:26;0.40;;;0.40;;
37237;SDS011;23129;49.662;8.448;2022-09-28T15:10:01;0.40;;;0.40;;
37237;SDS011;23129;49.662;8.448;2022-09-28T15:12:29;1.27;;;0.30;;
37237;SDS011;23129;49.662;8.448;2022-09-28T15:14:58;3.85;;;0.40;;
37237;SDS011;23129;49.662;8.448;2022-09-28T15:17:30;1.23;;;0.40;;
37237;SDS011;23129;49.662;8.448;2022-09-28T15:20:09;0.93;;;0.50;;
37237;SDS011;23129;49.662;8.448;2022-09-28T15:22:50;1.10;;;0.60;;
37237;SDS011;23129;49.662;8.448;2022-09-28T15:25:25;1.17;;;0.40;;
37237;SDS011;23129;49.662;8.448;2022-09-28T15:27:56;1.55;;;0.47;;
37237;SDS011;23129;49.662;8.448;2022-09-28T15:30:28;0.77;;;0.50;;
37237;SDS011;23129;49.662;8.448;2022-09-28T15:33:00;0.70;;;0.57;;
37237;SDS011;23129;49.662;8.448;2022-09-28T15:35:44;0.32;;;0.30;;
37237;SDS011;23129;49.662;8.448;2022-09-28T15:38:16;1.10;;;0.60;;
37237;SDS011;23129;49.662;8.448;2022-09-28T15:40:46;2.10;;;1.13;;
37237;SDS011;23129;49.662;8.448;2022-09-28T15:43:24;2.28;;;1.33;;
37237;SDS011;23129;49.662;8.448;2022-09-28T15:46:09;2.17;;;1.60;;
37237;SDS011;23129;49.662;8.448;2022-09-28T15:48:44;1.10;;;1.00;;
37237;SDS011;23129;49.662;8.448;2022-09-28T15:51:18;0.90;;;0.70;;
37237;SDS011;23129;49.662;8.448;2022-09-28T15:53:49;4.28;;;0.60;;
37237;SDS011;23129;49.662;8.448;2022-09-28T15:56:25;1.92;;;0.40;;
37237;SDS011;23129;49.662;8.448;2022-09-28T16:02:00;5.63;;;2.17;;
37237;SDS011;23129;49.662;8.448;2022-09-28T16:04:42;5.35;;;2.42;;
37237;SDS011;23129;49.662;8.448;2022-09-28T16:07:16;2.78;;;1.70;;
37237;SDS011;23129;49.662;8.448;2022-09-28T16:12:27;2.28;;;1.60;;
37237;SDS011;23129;49.662;8.448;2022-09-28T16:15:10;9.40;;;2.10;;
37237;SDS011;23129;49.662;8.448;2022-09-28T16:17:49;14.48;;;5.32;;
37237;SDS011;23129;49.662;8.448;2022-09-28T16:20:23;7.32;;;3.03;;
37237;SDS011;23129;49.662;8.448;2022-09-28T16:22:57;1.98;;;1.25;;
37237;SDS011;23129;49.662;8.448;2022-09-28T16:25:31;1.52;;;0.88;;
37237;SDS011;23129;49.662;8.448;2022-09-28T16:28:05;3.55;;;2.40;;
37237;SDS011;23129;49.662;8.448;2022-09-28T16:30:57;1.52;;;0.88;;
37237;SDS011;23129;49.662;8.448;2022-09-28T16:33:29;1.25;;;1.00;;
37237;SDS011;23129;49.662;8.448;2022-09-28T16:36:08;3.40;;;1.58;;
37237;SDS011;23129;49.662;8.448;2022-09-28T16:38:42;1.35;;;0.90;;
37237;SDS011;23129;49.662;8.448;2022-09-28T16:41:11;0.65;;;0.57;;
37237;SDS011;23129;49.662;8.448;2022-09-28T16:43:44;4.95;;;1.00;;
37237;SDS011;23129;49.662;8.448;2022-09-28T16:46:14;0.77;;;0.77;;